sensor_id;sensor_type;location;lat;lon;timestamp;temperature;humidity
18291;DHT22;9271;48.590;8.866;2023-07-31T00:01:21;16.80;99.90
18291;DHT22;9271;48.590;8.866;2023-07-31T00:03:49;16.60;99.90
18291;DHT22;9271;48.590;8.866;2023-07-31T00:06:19;16.70;99.90
18291;DHT22;9271;48.590;8.866;2023-07-31T00:08:49;16.90;99.90
18291;DHT22;9271;48.590;8.866;2023-07-31T00:11:16;16.80;99.90
18291;DHT22;9271;48.590;8.866;2023-07-31T00:13:44;16.60;99.90
18291;DHT22;9271;48.590;8.866;2023-07-31T00:16:11;16.50;99.90
18291;DHT22;9271;48.590;8.866;2023-07-31T00:18:38;16.40;99.90
18291;DHT22;9271;48.590;8.866;2023-07-31T00:21:05;16.50;99.90
18291;DHT22;9271;48.590;8.866;2023-07-31T00:23:32;16.60;99.90
18291;DHT22;9271;48.590;8.866;2023-07-31T00:25:58;16.40;99.90
18291;DHT22;9271;48.590;8.866;2023-07-31T00:28:25;16.40;99.90
18291;DHT22;9271;48.590;8.866;2023-07-31T00:30:54;16.40;99.90
18291;DHT22;9271;48.590;8.866;2023-07-31T00:33:21;16.30;99.90
18291;DHT22;9271;48.590;8.866;2023-07-31T00:35:48;16.20;99.90
18291;DHT22;9271;48.590;8.866;2023-07-31T00:38:15;16.30;99.90
18291;DHT22;9271;48.590;8.866;2023-07-31T00:40:42;16.20;99.90
18291;DHT22;9271;48.590;8.866;2023-07-31T00:43:09;16.10;99.90
18291;DHT22;9271;48.590;8.866;2023-07-31T00:45:36;16.10;99.90
18291;DHT22;9271;48.590;8.866;2023-07-31T00:48:05;16.20;99.90
18291;DHT22;9271;48.590;8.866;2023-07-31T00:50:33;16.20;99.90
18291;DHT22;9271;48.590;8.866;2023-07-31T00:53:01;16.20;99.90
18291;DHT22;9271;48.590;8.866;2023-07-31T00:55:29;16.20;99.90
18291;DHT22;9271;48.590;8.866;2023-07-31T00:57:56;16.00;99.90
18291;DHT22;9271;48.590;8.866;2023-07-31T01:00:23;15.80;99.90
18291;DHT22;9271;48.590;8.866;2023-07-31T01:02:53;15.80;99.90
18291;DHT22;9271;48.590;8.866;2023-07-31T01:05:29;15.70;99.90
18291;DHT22;9271;48.590;8.866;2023-07-31T01:08:04;15.80;99.90
18291;DHT22;9271;48.590;8.866;2023-07-31T01:10:36;15.80;99.90
18291;DHT22;9271;48.590;8.866;2023-07-31T01:13:07;15.90;99.90
18291;DHT22;9271;48.590;8.866;2023-07-31T01:15:34;15.80;99.90
18291;DHT22;9271;48.590;8.866;2023-07-31T01:18:01;15.80;99.90
18291;DHT22;9271;48.590;8.866;2023-07-31T01:20:30;15.70;99.90
18291;DHT22;9271;48.590;8.866;2023-07-31T01:23:22;15.60;99.90
18291;DHT22;9271;48.590;8.866;2023-07-31T01:25:59;15.40;99.90
18291;DHT22;9271;48.590;8.866;2023-07-31T01:28:32;15.50;99.90
18291;DHT22;9271;48.590;8.866;2023-07-31T01:31:02;15.50;99.90
18291;DHT22;9271;48.590;8.866;2023-07-31T01:33:32;15.60;99.90
18291;DHT22;9271;48.590;8.866;2023-07-31T01:35:59;15.70;99.90
18291;DHT22;9271;48.590;8.866;2023-07-31T01:38:28;15.60;99.90
18291;DHT22;9271;48.590;8.866;2023-07-31T01:40:59;15.50;99.90
18291;DHT22;9271;48.590;8.866;2023-07-31T01:43:29;15.50;99.90
18291;DHT22;9271;48.590;8.866;2023-07-31T01:45:59;15.20;99.90
18291;DHT22;9271;48.590;8.866;2023-07-31T01:48:26;15.30;99.90
18291;DHT22;9271;48.590;8.866;2023-07-31T01:50:53;15.30;99.90
18291;DHT22;9271;48.590;8.866;2023-07-31T01:53:20;15.30;99.90
18291;DHT22;9271;48.590;8.866;2023-07-31T01:55:47;15.30;99.90
18291;DHT22;9271;48.590;8.866;2023-07-31T01:58:16;15.20;99.90
18291;DHT22;9271;48.590;8.866;2023-07-31T02:00:43;15.40;99.90
18291;DHT22;9271;48.590;8.866;2023-07-31T02:03:10;15.50;99.90
18291;DHT22;9271;48.590;8.866;2023-07-31T02:05:37;15.50;99.90
18291;DHT22;9271;48.590;8.866;2023-07-31T02:08:10;15.50;99.90
18291;DHT22;9271;48.590;8.866;2023-07-31T02:10:39;15.40;99.90
18291;DHT22;9271;48.590;8.866;2023-07-31T02:13:05;15.50;99.90
18291;DHT22;9271;48.590;8.866;2023-07-31T02:15:34;15.70;99.90
18291;DHT22;9271;48.590;8.866;2023-07-31T02:18:01;15.80;99.90
18291;DHT22;9271;48.590;8.866;2023-07-31T02:20:28;15.70;99.90
18291;DHT22;9271;48.590;8.866;2023-07-31T02:22:55;15.50;99.90
18291;DHT22;9271;48.590;8.866;2023-07-31T02:25:21;15.60;99.90
18291;DHT22;9271;48.590;8.866;2023-07-31T02:27:48;15.60;99.90
18291;DHT22;9271;48.590;8.866;2023-07-31T02:30:15;15.70;99.90
18291;DHT22;9271;48.590;8.866;2023-07-31T02:32:43;15.70;99.90
18291;DHT22;9271;48.590;8.866;2023-07-31T02:35:09;15.60;99.90
18291;DHT22;9271;48.590;8.866;2023-07-31T02:37:40;15.50;99.90
18291;DHT22;9271;48.590;8.866;2023-07-31T02:40:08;15.60;99.90
18291;DHT22;9271;48.590;8.866;2023-07-31T02:42:34;15.50;99.90
18291;DHT22;9271;48.590;8.866;2023-07-31T02:45:01;15.40;99.90
18291;DHT22;9271;48.590;8.866;2023-07-31T02:47:28;15.40;99.90
18291;DHT22;9271;48.590;8.866;2023-07-31T02:49:56;15.30;99.90
18291;DHT22;9271;48.590;8.866;2023-07-31T02:52:23;14.90;99.90
18291;DHT22;9271;48.590;8.866;2023-07-31T02:54:49;14.70;99.90
18291;DHT22;9271;48.590;8.866;2023-07-31T02:57:16;14.80;99.90
18291;DHT22;9271;48.590;8.866;2023-07-31T02:59:42;15.00;99.90
18291;DHT22;9271;48.590;8.866;2023-07-31T03:02:09;15.00;99.90
18291;DHT22;9271;48.590;8.866;2023-07-31T03:04:36;15.20;99.90
18291;DHT22;9271;48.590;8.866;2023-07-31T03:07:04;15.20;99.90
18291;DHT22;9271;48.590;8.866;2023-07-31T03:09:31;15.10;99.90
18291;DHT22;9271;48.590;8.866;2023-07-31T03:11:58;14.60;99.90
18291;DHT22;9271;48.590;8.866;2023-07-31T03:14:25;14.70;99.90
18291;DHT22;9271;48.590;8.866;2023-07-31T03:16:52;15.00;99.90
18291;DHT22;9271;48.590;8.866;2023-07-31T03:19:18;15.10;99.90
18291;DHT22;9271;48.590;8.866;2023-07-31T03:21:45;15.20;99.90
18291;DHT22;9271;48.590;8.866;2023-07-31T03:24:13;15.10;99.90
18291;DHT22;9271;48.590;8.866;2023-07-31T03:26:40;15.10;99.90
18291;DHT22;9271;48.590;8.866;2023-07-31T03:29:07;15.30;99.90
18291;DHT22;9271;48.590;8.866;2023-07-31T03:31:34;15.30;99.90
18291;DHT22;9271;48.590;8.866;2023-07-31T03:34:01;15.40;99.90
18291;DHT22;9271;48.590;8.866;2023-07-31T03:36:27;15.30;99.90
18291;DHT22;9271;48.590;8.866;2023-07-31T03:38:54;15.50;99.90
18291;DHT22;9271;48.590;8.866;2023-07-31T03:41:22;15.50;99.90
18291;DHT22;9271;48.590;8.866;2023-07-31T03:43:50;15.40;99.90
18291;DHT22;9271;48.590;8.866;2023-07-31T03:46:17;15.60;99.90
18291;DHT22;9271;48.590;8.866;2023-07-31T03:48:44;15.60;99.90
18291;DHT22;9271;48.590;8.866;2023-07-31T03:51:11;15.50;99.90
18291;DHT22;9271;48.590;8.866;2023-07-31T03:53:37;15.60;99.90
18291;DHT22;9271;48.590;8.866;2023-07-31T03:56:04;15.80;99.90
18291;DHT22;9271;48.590;8.866;2023-07-31T03:58:32;15.80;99.90
18291;DHT22;9271;48.590;8.866;2023-07-31T04:01:00;16.00;99.90
18291;DHT22;9271;48.590;8.866;2023-07-31T04:03:27;16.10;99.90
18291;DHT22;9271;48.590;8.866;2023-07-31T04:05:54;16.10;99.90
18291;DHT22;9271;48.590;8.866;2023-07-31T04:08:21;16.10;99.90
18291;DHT22;9271;48.590;8.866;2023-07-31T04:10:48;16.20;99.90
18291;DHT22;9271;48.590;8.866;2023-07-31T04:13:14;16.10;99.90
18291;DHT22;9271;48.590;8.866;2023-07-31T04:15:42;16.00;99.90
18291;DHT22;9271;48.590;8.866;2023-07-31T04:18:09;16.10;99.90
18291;DHT22;9271;48.590;8.866;2023-07-31T04:20:36;15.90;99.90
18291;DHT22;9271;48.590;8.866;2023-07-31T04:23:02;16.10;99.90
18291;DHT22;9271;48.590;8.866;2023-07-31T04:25:29;16.00;99.90
18291;DHT22;9271;48.590;8.866;2023-07-31T04:27:57;16.20;99.90
18291;DHT22;9271;48.590;8.866;2023-07-31T04:30:24;16.20;99.90
18291;DHT22;9271;48.590;8.866;2023-07-31T04:32:52;16.40;99.90
18291;DHT22;9271;48.590;8.866;2023-07-31T04:35:18;16.50;99.90
18291;DHT22;9271;48.590;8.866;2023-07-31T04:37:45;16.50;99.90
18291;DHT22;9271;48.590;8.866;2023-07-31T04:40:14;16.10;99.90
18291;DHT22;9271;48.590;8.866;2023-07-31T04:42:41;16.30;99.90
18291;DHT22;9271;48.590;8.866;2023-07-31T04:45:09;16.30;99.90
18291;DHT22;9271;48.590;8.866;2023-07-31T04:47:36;16.00;99.90
18291;DHT22;9271;48.590;8.866;2023-07-31T04:50:04;16.20;99.90
18291;DHT22;9271;48.590;8.866;2023-07-31T04:52:31;16.40;99.90
18291;DHT22;9271;48.590;8.866;2023-07-31T04:54:58;16.50;99.90
18291;DHT22;9271;48.590;8.866;2023-07-31T04:57:25;16.50;99.90
18291;DHT22;9271;48.590;8.866;2023-07-31T04:59:51;16.40;99.90
18291;DHT22;9271;48.590;8.866;2023-07-31T05:02:18;16.40;99.90
18291;DHT22;9271;48.590;8.866;2023-07-31T05:04:45;16.70;99.90
18291;DHT22;9271;48.590;8.866;2023-07-31T05:07:13;16.90;99.90
18291;DHT22;9271;48.590;8.866;2023-07-31T05:09:39;17.10;99.90
18291;DHT22;9271;48.590;8.866;2023-07-31T05:12:07;17.20;99.90
18291;DHT22;9271;48.590;8.866;2023-07-31T05:14:33;16.80;99.90
18291;DHT22;9271;48.590;8.866;2023-07-31T05:17:00;16.90;99.90
18291;DHT22;9271;48.590;8.866;2023-07-31T05:19:27;17.30;99.90
18291;DHT22;9271;48.590;8.866;2023-07-31T05:21:53;17.70;99.90
18291;DHT22;9271;48.590;8.866;2023-07-31T05:24:21;18.00;99.90
18291;DHT22;9271;48.590;8.866;2023-07-31T05:26:48;18.10;99.90
18291;DHT22;9271;48.590;8.866;2023-07-31T05:29:14;18.20;99.90
18291;DHT22;9271;48.590;8.866;2023-07-31T05:31:42;18.50;99.90
18291;DHT22;9271;48.590;8.866;2023-07-31T05:34:08;18.50;99.90
18291;DHT22;9271;48.590;8.866;2023-07-31T05:36:35;18.40;99.90
18291;DHT22;9271;48.590;8.866;2023-07-31T05:39:02;18.60;99.90
18291;DHT22;9271;48.590;8.866;2023-07-31T05:41:34;18.70;99.90
18291;DHT22;9271;48.590;8.866;2023-07-31T05:44:03;18.90;99.90
18291;DHT22;9271;48.590;8.866;2023-07-31T05:46:29;18.90;99.90
18291;DHT22;9271;48.590;8.866;2023-07-31T05:48:56;18.90;99.90
18291;DHT22;9271;48.590;8.866;2023-07-31T05:51:25;18.80;99.90
18291;DHT22;9271;48.590;8.866;2023-07-31T05:53:52;18.80;99.90
18291;DHT22;9271;48.590;8.866;2023-07-31T05:56:18;18.80;99.90
18291;DHT22;9271;48.590;8.866;2023-07-31T05:58:46;18.70;99.90
18291;DHT22;9271;48.590;8.866;2023-07-31T06:01:15;18.60;99.90
18291;DHT22;9271;48.590;8.866;2023-07-31T06:03:41;18.40;99.90
18291;DHT22;9271;48.590;8.866;2023-07-31T06:06:08;18.40;99.90
18291;DHT22;9271;48.590;8.866;2023-07-31T06:08:35;18.50;99.90
18291;DHT22;9271;48.590;8.866;2023-07-31T06:11:02;18.80;99.90
18291;DHT22;9271;48.590;8.866;2023-07-31T06:13:29;18.90;99.90
18291;DHT22;9271;48.590;8.866;2023-07-31T06:15:57;19.20;99.90
18291;DHT22;9271;48.590;8.866;2023-07-31T06:18:24;19.50;99.90
18291;DHT22;9271;48.590;8.866;2023-07-31T06:20:51;19.70;99.90
18291;DHT22;9271;48.590;8.866;2023-07-31T06:23:19;19.90;99.90
18291;DHT22;9271;48.590;8.866;2023-07-31T06:25:46;20.20;99.90
18291;DHT22;9271;48.590;8.866;2023-07-31T06:28:12;20.30;99.90
18291;DHT22;9271;48.590;8.866;2023-07-31T06:30:39;20.40;99.90
18291;DHT22;9271;48.590;8.866;2023-07-31T06:33:07;20.10;99.80
18291;DHT22;9271;48.590;8.866;2023-07-31T06:35:34;19.50;99.90
18291;DHT22;9271;48.590;8.866;2023-07-31T06:38:01;19.70;99.80
18291;DHT22;9271;48.590;8.866;2023-07-31T06:40:28;20.10;99.40
18291;DHT22;9271;48.590;8.866;2023-07-31T06:42:54;20.00;99.20
18291;DHT22;9271;48.590;8.866;2023-07-31T06:45:21;20.40;99.30
18291;DHT22;9271;48.590;8.866;2023-07-31T06:47:48;19.80;99.10
18291;DHT22;9271;48.590;8.866;2023-07-31T06:50:16;19.90;99.00
18291;DHT22;9271;48.590;8.866;2023-07-31T06:52:43;19.60;99.30
18291;DHT22;9271;48.590;8.866;2023-07-31T06:55:17;19.50;99.30
18291;DHT22;9271;48.590;8.866;2023-07-31T06:57:44;19.70;99.30
18291;DHT22;9271;48.590;8.866;2023-07-31T07:00:11;19.60;98.90
18291;DHT22;9271;48.590;8.866;2023-07-31T07:02:38;19.60;99.90
18291;DHT22;9271;48.590;8.866;2023-07-31T07:05:07;19.80;98.60
18291;DHT22;9271;48.590;8.866;2023-07-31T07:07:35;19.60;99.70
18291;DHT22;9271;48.590;8.866;2023-07-31T07:10:03;19.90;99.20
18291;DHT22;9271;48.590;8.866;2023-07-31T07:12:31;19.90;99.00
18291;DHT22;9271;48.590;8.866;2023-07-31T07:14:58;20.10;98.70
18291;DHT22;9271;48.590;8.866;2023-07-31T07:17:25;19.70;98.60
18291;DHT22;9271;48.590;8.866;2023-07-31T07:19:51;19.50;98.80
18291;DHT22;9271;48.590;8.866;2023-07-31T07:22:18;19.90;99.00
18291;DHT22;9271;48.590;8.866;2023-07-31T07:24:46;19.90;97.90
18291;DHT22;9271;48.590;8.866;2023-07-31T07:27:13;19.60;99.20
18291;DHT22;9271;48.590;8.866;2023-07-31T07:29:40;20.00;98.60
18291;DHT22;9271;48.590;8.866;2023-07-31T07:32:07;19.30;99.00
18291;DHT22;9271;48.590;8.866;2023-07-31T07:34:34;19.10;99.20
18291;DHT22;9271;48.590;8.866;2023-07-31T07:37:00;20.00;98.50
18291;DHT22;9271;48.590;8.866;2023-07-31T07:39:27;20.80;97.10
18291;DHT22;9271;48.590;8.866;2023-07-31T07:41:55;20.50;96.80
18291;DHT22;9271;48.590;8.866;2023-07-31T07:44:22;20.90;96.90
18291;DHT22;9271;48.590;8.866;2023-07-31T07:46:48;21.10;95.90
18291;DHT22;9271;48.590;8.866;2023-07-31T07:49:15;21.50;95.50
18291;DHT22;9271;48.590;8.866;2023-07-31T07:51:42;21.20;96.00
18291;DHT22;9271;48.590;8.866;2023-07-31T07:54:08;22.10;95.00
18291;DHT22;9271;48.590;8.866;2023-07-31T07:56:35;22.70;94.70
18291;DHT22;9271;48.590;8.866;2023-07-31T07:59:03;23.60;93.40
18291;DHT22;9271;48.590;8.866;2023-07-31T08:01:30;23.50;92.10
18291;DHT22;9271;48.590;8.866;2023-07-31T08:03:57;23.30;92.50
18291;DHT22;9271;48.590;8.866;2023-07-31T08:06:24;24.70;91.40
18291;DHT22;9271;48.590;8.866;2023-07-31T08:08:50;25.00;90.20
18291;DHT22;9271;48.590;8.866;2023-07-31T08:11:17;26.00;86.70
18291;DHT22;9271;48.590;8.866;2023-07-31T08:13:44;25.80;85.30
18291;DHT22;9271;48.590;8.866;2023-07-31T08:16:12;24.80;87.10
18291;DHT22;9271;48.590;8.866;2023-07-31T08:18:38;24.60;88.00
18291;DHT22;9271;48.590;8.866;2023-07-31T08:21:06;25.70;86.50
18291;DHT22;9271;48.590;8.866;2023-07-31T08:23:32;26.00;83.30
18291;DHT22;9271;48.590;8.866;2023-07-31T08:25:59;26.00;84.50
18291;DHT22;9271;48.590;8.866;2023-07-31T08:28:26;26.10;83.40
18291;DHT22;9271;48.590;8.866;2023-07-31T08:30:52;24.90;86.60
18291;DHT22;9271;48.590;8.866;2023-07-31T08:33:20;24.20;87.60
18291;DHT22;9271;48.590;8.866;2023-07-31T08:35:47;24.40;89.20
18291;DHT22;9271;48.590;8.866;2023-07-31T08:38:13;23.40;88.60
18291;DHT22;9271;48.590;8.866;2023-07-31T08:40:40;22.90;90.80
18291;DHT22;9271;48.590;8.866;2023-07-31T08:43:08;23.70;88.90
18291;DHT22;9271;48.590;8.866;2023-07-31T08:45:35;23.80;89.30
18291;DHT22;9271;48.590;8.866;2023-07-31T08:48:02;23.50;88.20
18291;DHT22;9271;48.590;8.866;2023-07-31T08:50:30;23.30;90.20
18291;DHT22;9271;48.590;8.866;2023-07-31T08:52:57;22.40;90.70
18291;DHT22;9271;48.590;8.866;2023-07-31T08:55:24;21.50;92.10
18291;DHT22;9271;48.590;8.866;2023-07-31T08:57:52;22.30;91.80
18291;DHT22;9271;48.590;8.866;2023-07-31T09:00:19;24.70;88.60
18291;DHT22;9271;48.590;8.866;2023-07-31T09:02:57;25.80;83.00
18291;DHT22;9271;48.590;8.866;2023-07-31T09:05:26;25.00;83.10
18291;DHT22;9271;48.590;8.866;2023-07-31T09:07:57;24.60;85.70
18291;DHT22;9271;48.590;8.866;2023-07-31T09:10:24;24.10;87.10
18291;DHT22;9271;48.590;8.866;2023-07-31T09:12:51;24.00;86.30
18291;DHT22;9271;48.590;8.866;2023-07-31T09:15:19;23.60;88.20
18291;DHT22;9271;48.590;8.866;2023-07-31T09:17:46;23.20;89.70
18291;DHT22;9271;48.590;8.866;2023-07-31T09:20:14;23.20;90.00
18291;DHT22;9271;48.590;8.866;2023-07-31T09:22:42;22.80;90.30
18291;DHT22;9271;48.590;8.866;2023-07-31T09:25:20;22.30;90.90
18291;DHT22;9271;48.590;8.866;2023-07-31T09:27:49;22.60;90.70
18291;DHT22;9271;48.590;8.866;2023-07-31T09:30:16;22.70;90.60
18291;DHT22;9271;48.590;8.866;2023-07-31T09:32:44;23.20;90.90
18291;DHT22;9271;48.590;8.866;2023-07-31T09:35:19;23.00;90.00
18291;DHT22;9271;48.590;8.866;2023-07-31T09:37:49;22.40;90.30
18291;DHT22;9271;48.590;8.866;2023-07-31T09:40:27;22.50;89.60
18291;DHT22;9271;48.590;8.866;2023-07-31T09:42:56;22.80;90.40
18291;DHT22;9271;48.590;8.866;2023-07-31T09:45:23;22.90;90.00
18291;DHT22;9271;48.590;8.866;2023-07-31T09:47:50;22.90;89.50
18291;DHT22;9271;48.590;8.866;2023-07-31T09:50:17;23.20;88.70
18291;DHT22;9271;48.590;8.866;2023-07-31T09:52:44;23.90;85.50
18291;DHT22;9271;48.590;8.866;2023-07-31T09:55:11;24.30;86.70
18291;DHT22;9271;48.590;8.866;2023-07-31T09:57:40;26.40;80.80
18291;DHT22;9271;48.590;8.866;2023-07-31T10:00:09;26.00;81.10
18291;DHT22;9271;48.590;8.866;2023-07-31T10:02:37;26.70;79.30
18291;DHT22;9271;48.590;8.866;2023-07-31T10:05:05;28.20;75.10
18291;DHT22;9271;48.590;8.866;2023-07-31T10:07:36;28.80;71.70
18291;DHT22;9271;48.590;8.866;2023-07-31T10:10:04;29.80;68.50
18291;DHT22;9271;48.590;8.866;2023-07-31T10:12:33;29.70;67.60
18291;DHT22;9271;48.590;8.866;2023-07-31T10:15:02;29.80;67.00
18291;DHT22;9271;48.590;8.866;2023-07-31T10:17:30;30.90;64.20
18291;DHT22;9271;48.590;8.866;2023-07-31T10:19:58;29.70;62.90
18291;DHT22;9271;48.590;8.866;2023-07-31T10:22:26;28.40;68.80
18291;DHT22;9271;48.590;8.866;2023-07-31T10:24:55;29.10;64.50
18291;DHT22;9271;48.590;8.866;2023-07-31T10:27:24;30.30;63.40
18291;DHT22;9271;48.590;8.866;2023-07-31T10:29:51;29.90;62.30
18291;DHT22;9271;48.590;8.866;2023-07-31T10:32:21;28.00;67.00
18291;DHT22;9271;48.590;8.866;2023-07-31T10:34:49;28.50;67.40
18291;DHT22;9271;48.590;8.866;2023-07-31T10:37:20;28.10;67.60
18291;DHT22;9271;48.590;8.866;2023-07-31T10:39:56;27.00;68.70
18291;DHT22;9271;48.590;8.866;2023-07-31T10:42:28;26.90;70.70
18291;DHT22;9271;48.590;8.866;2023-07-31T10:44:57;27.30;69.40
18291;DHT22;9271;48.590;8.866;2023-07-31T10:47:25;28.80;67.40
18291;DHT22;9271;48.590;8.866;2023-07-31T10:49:52;29.00;66.30
18291;DHT22;9271;48.590;8.866;2023-07-31T10:52:20;28.10;65.60
18291;DHT22;9271;48.590;8.866;2023-07-31T10:54:49;28.10;67.50
18291;DHT22;9271;48.590;8.866;2023-07-31T10:57:20;28.00;67.10
18291;DHT22;9271;48.590;8.866;2023-07-31T10:59:47;28.40;66.70
18291;DHT22;9271;48.590;8.866;2023-07-31T11:02:25;29.20;63.90
18291;DHT22;9271;48.590;8.866;2023-07-31T11:05:08;28.60;64.20
18291;DHT22;9271;48.590;8.866;2023-07-31T11:07:48;28.90;65.50
18291;DHT22;9271;48.590;8.866;2023-07-31T11:10:18;27.80;67.40
18291;DHT22;9271;48.590;8.866;2023-07-31T11:12:45;26.30;70.60
18291;DHT22;9271;48.590;8.866;2023-07-31T11:15:12;24.90;75.80
18291;DHT22;9271;48.590;8.866;2023-07-31T11:17:40;24.50;77.60
18291;DHT22;9271;48.590;8.866;2023-07-31T11:20:08;24.70;76.90
18291;DHT22;9271;48.590;8.866;2023-07-31T11:22:35;24.70;76.90
18291;DHT22;9271;48.590;8.866;2023-07-31T11:25:02;24.60;77.60
18291;DHT22;9271;48.590;8.866;2023-07-31T11:27:30;24.20;77.50
18291;DHT22;9271;48.590;8.866;2023-07-31T11:30:00;23.80;79.80
18291;DHT22;9271;48.590;8.866;2023-07-31T11:32:27;23.80;80.70
18291;DHT22;9271;48.590;8.866;2023-07-31T11:34:55;23.80;80.60
18291;DHT22;9271;48.590;8.866;2023-07-31T11:37:22;24.20;80.00
18291;DHT22;9271;48.590;8.866;2023-07-31T11:39:59;24.00;80.00
18291;DHT22;9271;48.590;8.866;2023-07-31T11:42:25;24.00;81.00
18291;DHT22;9271;48.590;8.866;2023-07-31T11:44:52;24.00;80.60
18291;DHT22;9271;48.590;8.866;2023-07-31T11:47:19;23.70;80.80
18291;DHT22;9271;48.590;8.866;2023-07-31T11:49:48;23.50;81.00
18291;DHT22;9271;48.590;8.866;2023-07-31T11:52:18;23.80;81.80
18291;DHT22;9271;48.590;8.866;2023-07-31T11:54:46;23.90;83.20
18291;DHT22;9271;48.590;8.866;2023-07-31T11:57:13;22.80;86.60
18291;DHT22;9271;48.590;8.866;2023-07-31T11:59:40;22.40;90.50
18291;DHT22;9271;48.590;8.866;2023-07-31T12:02:06;22.20;92.20
18291;DHT22;9271;48.590;8.866;2023-07-31T12:04:33;22.60;92.20
18291;DHT22;9271;48.590;8.866;2023-07-31T12:07:00;22.80;92.40
18291;DHT22;9271;48.590;8.866;2023-07-31T12:09:28;23.30;91.40
18291;DHT22;9271;48.590;8.866;2023-07-31T12:11:55;24.20;90.80
18291;DHT22;9271;48.590;8.866;2023-07-31T12:14:23;24.70;85.50
18291;DHT22;9271;48.590;8.866;2023-07-31T12:16:53;24.50;85.50
18291;DHT22;9271;48.590;8.866;2023-07-31T12:19:21;24.60;85.50
18291;DHT22;9271;48.590;8.866;2023-07-31T12:21:48;24.40;87.80
18291;DHT22;9271;48.590;8.866;2023-07-31T12:24:14;24.70;87.30
18291;DHT22;9271;48.590;8.866;2023-07-31T12:26:45;26.50;82.90
18291;DHT22;9271;48.590;8.866;2023-07-31T12:29:12;28.90;75.10
18291;DHT22;9271;48.590;8.866;2023-07-31T12:31:41;28.60;74.00
18291;DHT22;9271;48.590;8.866;2023-07-31T12:34:15;28.40;72.60
18291;DHT22;9271;48.590;8.866;2023-07-31T12:36:43;29.90;69.40
18291;DHT22;9271;48.590;8.866;2023-07-31T12:39:10;32.20;67.10
18291;DHT22;9271;48.590;8.866;2023-07-31T12:41:37;33.10;59.70
18291;DHT22;9271;48.590;8.866;2023-07-31T12:44:05;32.60;60.80
18291;DHT22;9271;48.590;8.866;2023-07-31T12:46:32;31.20;62.90
18291;DHT22;9271;48.590;8.866;2023-07-31T12:48:58;30.80;63.40
18291;DHT22;9271;48.590;8.866;2023-07-31T12:51:25;30.00;63.90
18291;DHT22;9271;48.590;8.866;2023-07-31T12:53:52;29.90;66.10
18291;DHT22;9271;48.590;8.866;2023-07-31T12:56:18;30.50;63.70
18291;DHT22;9271;48.590;8.866;2023-07-31T12:58:45;29.90;64.80
18291;DHT22;9271;48.590;8.866;2023-07-31T13:01:13;28.70;68.20
18291;DHT22;9271;48.590;8.866;2023-07-31T13:03:39;29.10;65.70
18291;DHT22;9271;48.590;8.866;2023-07-31T13:06:06;28.40;67.60
18291;DHT22;9271;48.590;8.866;2023-07-31T13:08:33;27.40;70.20
18291;DHT22;9271;48.590;8.866;2023-07-31T13:10:59;26.30;75.80
18291;DHT22;9271;48.590;8.866;2023-07-31T13:13:26;26.10;76.40
18291;DHT22;9271;48.590;8.866;2023-07-31T13:15:53;25.90;77.30
18291;DHT22;9271;48.590;8.866;2023-07-31T13:18:21;25.80;76.80
18291;DHT22;9271;48.590;8.866;2023-07-31T13:20:47;25.30;77.30
18291;DHT22;9271;48.590;8.866;2023-07-31T13:23:14;25.30;76.90
18291;DHT22;9271;48.590;8.866;2023-07-31T13:25:41;25.50;75.30
18291;DHT22;9271;48.590;8.866;2023-07-31T13:28:08;25.20;74.90
18291;DHT22;9271;48.590;8.866;2023-07-31T13:30:35;25.50;74.90
18291;DHT22;9271;48.590;8.866;2023-07-31T13:33:01;25.10;76.90
18291;DHT22;9271;48.590;8.866;2023-07-31T13:35:30;25.20;76.30
18291;DHT22;9271;48.590;8.866;2023-07-31T13:37:57;25.30;76.20
18291;DHT22;9271;48.590;8.866;2023-07-31T13:40:24;25.00;77.40
18291;DHT22;9271;48.590;8.866;2023-07-31T13:42:50;24.50;76.70
18291;DHT22;9271;48.590;8.866;2023-07-31T13:45:18;24.60;78.00
18291;DHT22;9271;48.590;8.866;2023-07-31T13:47:44;24.20;77.20
18291;DHT22;9271;48.590;8.866;2023-07-31T13:50:11;24.00;77.70
18291;DHT22;9271;48.590;8.866;2023-07-31T13:52:39;24.20;78.20
18291;DHT22;9271;48.590;8.866;2023-07-31T13:55:06;24.40;76.40
18291;DHT22;9271;48.590;8.866;2023-07-31T13:57:33;24.60;77.00
18291;DHT22;9271;48.590;8.866;2023-07-31T14:00:00;24.90;75.30
18291;DHT22;9271;48.590;8.866;2023-07-31T14:02:27;25.40;75.10
18291;DHT22;9271;48.590;8.866;2023-07-31T14:04:54;25.40;74.10
18291;DHT22;9271;48.590;8.866;2023-07-31T14:07:21;24.60;76.80
18291;DHT22;9271;48.590;8.866;2023-07-31T14:09:49;24.80;78.20
18291;DHT22;9271;48.590;8.866;2023-07-31T14:12:15;25.00;75.60
18291;DHT22;9271;48.590;8.866;2023-07-31T14:14:42;24.80;76.40
18291;DHT22;9271;48.590;8.866;2023-07-31T14:17:09;25.10;74.20
18291;DHT22;9271;48.590;8.866;2023-07-31T14:19:35;25.00;74.80
18291;DHT22;9271;48.590;8.866;2023-07-31T14:22:02;25.10;73.50
18291;DHT22;9271;48.590;8.866;2023-07-31T14:24:29;25.40;74.10
18291;DHT22;9271;48.590;8.866;2023-07-31T14:26:57;25.60;74.30
18291;DHT22;9271;48.590;8.866;2023-07-31T14:29:23;25.70;73.10
18291;DHT22;9271;48.590;8.866;2023-07-31T14:31:50;25.90;72.50
18291;DHT22;9271;48.590;8.866;2023-07-31T14:34:17;26.40;72.80
18291;DHT22;9271;48.590;8.866;2023-07-31T14:36:43;25.90;72.90
18291;DHT22;9271;48.590;8.866;2023-07-31T14:39:11;26.30;73.10
18291;DHT22;9271;48.590;8.866;2023-07-31T14:41:38;26.70;72.00
18291;DHT22;9271;48.590;8.866;2023-07-31T14:44:06;26.40;71.50
18291;DHT22;9271;48.590;8.866;2023-07-31T14:46:33;26.30;73.20
18291;DHT22;9271;48.590;8.866;2023-07-31T14:48:59;26.30;73.50
18291;DHT22;9271;48.590;8.866;2023-07-31T14:51:26;26.50;72.10
18291;DHT22;9271;48.590;8.866;2023-07-31T14:53:52;26.00;73.80
18291;DHT22;9271;48.590;8.866;2023-07-31T14:56:19;26.30;74.20
18291;DHT22;9271;48.590;8.866;2023-07-31T14:58:46;26.30;72.70
18291;DHT22;9271;48.590;8.866;2023-07-31T15:01:14;25.90;73.70
18291;DHT22;9271;48.590;8.866;2023-07-31T15:03:40;25.90;75.20
18291;DHT22;9271;48.590;8.866;2023-07-31T15:06:07;25.90;75.60
18291;DHT22;9271;48.590;8.866;2023-07-31T15:08:34;25.70;74.50
18291;DHT22;9271;48.590;8.866;2023-07-31T15:11:02;24.70;75.60
18291;DHT22;9271;48.590;8.866;2023-07-31T15:13:28;24.40;77.40
18291;DHT22;9271;48.590;8.866;2023-07-31T15:15:55;24.40;76.70
18291;DHT22;9271;48.590;8.866;2023-07-31T15:18:24;24.40;76.00
18291;DHT22;9271;48.590;8.866;2023-07-31T15:20:51;24.10;77.10
18291;DHT22;9271;48.590;8.866;2023-07-31T15:23:18;24.20;77.90
18291;DHT22;9271;48.590;8.866;2023-07-31T15:25:44;24.70;76.90
18291;DHT22;9271;48.590;8.866;2023-07-31T15:28:11;24.50;76.80
18291;DHT22;9271;48.590;8.866;2023-07-31T15:30:38;24.40;77.80
18291;DHT22;9271;48.590;8.866;2023-07-31T15:33:04;24.20;77.50
18291;DHT22;9271;48.590;8.866;2023-07-31T15:35:32;24.20;78.50
18291;DHT22;9271;48.590;8.866;2023-07-31T15:37:59;24.40;77.90
18291;DHT22;9271;48.590;8.866;2023-07-31T15:40:26;24.90;77.30
18291;DHT22;9271;48.590;8.866;2023-07-31T15:42:52;25.10;77.50
18291;DHT22;9271;48.590;8.866;2023-07-31T15:45:19;25.60;75.60
18291;DHT22;9271;48.590;8.866;2023-07-31T15:47:46;26.00;74.90